sensor_id;sensor_type;location;lat;lon;timestamp;pressure;altitude;pressure_sealevel;temperature;humidity
70343;BME280;57767;42.068;24.752;2023-12-04T00:00:58;99226.16;;;6.08;82.47
70343;BME280;57767;42.068;24.752;2023-12-04T00:02:00;99245.53;;;6.07;82.55
70343;BME280;57767;42.068;24.752;2023-12-04T00:03:02;98915.19;;;4.14;82.07
70343;BME280;57767;42.068;24.752;2023-12-04T00:04:04;99152.81;;;5.53;82.43
70343;BME280;57767;42.068;24.752;2023-12-04T00:05:06;98981.31;;;4.55;82.10
70343;BME280;57767;42.068;24.752;2023-12-04T00:06:10;98915.19;;;4.14;82.20
70343;BME280;57767;42.068;24.752;2023-12-04T00:07:13;99173.91;;;5.68;82.60
70343;BME280;57767;42.068;24.752;2023-12-04T00:08:15;99122.25;;;5.37;82.24
70343;BME280;57767;42.068;24.752;2023-12-04T00:09:16;99233.75;;;6.03;83.10
70343;BME280;57767;42.068;24.752;2023-12-04T00:10:18;99214.13;;;5.91;82.65
70343;BME280;57767;42.068;24.752;2023-12-04T00:11:20;99227.03;;;6.01;82.62
70343;BME280;57767;42.068;24.752;2023-12-04T00:12:22;99192.06;;;5.69;82.11
70343;BME280;57767;42.068;24.752;2023-12-04T00:13:25;99137.97;;;5.37;82.80
70343;BME280;57767;42.068;24.752;2023-12-04T00:14:28;98725.28;;;2.62;82.78
70343;BME280;57767;42.068;24.752;2023-12-04T00:15:30;99211.84;;;5.72;82.85
70343;BME280;57767;42.068;24.752;2023-12-04T00:16:35;98932.84;;;3.87;82.70
70343;BME280;57767;42.068;24.752;2023-12-04T00:17:37;99142.75;;;5.18;83.21
70343;BME280;57767;42.068;24.752;2023-12-04T00:18:42;99104.69;;;4.91;83.62
70343;BME280;57767;42.068;24.752;2023-12-04T00:19:44;99252.78;;;5.81;84.18
70343;BME280;57767;42.068;24.752;2023-12-04T00:20:46;99161.59;;;5.05;82.97
70343;BME280;57767;42.068;24.752;2023-12-04T00:21:48;99276.03;;;5.76;83.49
70343;BME280;57767;42.068;24.752;2023-12-04T00:22:49;99192.44;;;5.34;82.73
70343;BME280;57767;42.068;24.752;2023-12-04T00:23:51;99175.28;;;5.23;83.61
70343;BME280;57767;42.068;24.752;2023-12-04T00:24:53;99227.13;;;5.52;83.18
70343;BME280;57767;42.068;24.752;2023-12-04T00:25:55;99158.81;;;5.07;83.40
70343;BME280;57767;42.068;24.752;2023-12-04T00:26:57;98961.25;;;3.82;83.25
70343;BME280;57767;42.068;24.752;2023-12-04T00:27:59;99209.00;;;5.26;83.34
70343;BME280;57767;42.068;24.752;2023-12-04T00:29:01;99252.19;;;5.55;82.40
70343;BME280;57767;42.068;24.752;2023-12-04T00:30:03;99129.22;;;4.74;82.59
70343;BME280;57767;42.068;24.752;2023-12-04T00:31:08;99165.53;;;4.93;82.21
70343;BME280;57767;42.068;24.752;2023-12-04T00:32:10;99288.50;;;5.58;81.34
70343;BME280;57767;42.068;24.752;2023-12-04T00:33:12;99290.50;;;5.56;82.30
70343;BME280;57767;42.068;24.752;2023-12-04T00:34:14;99291.47;;;5.47;82.31
70343;BME280;57767;42.068;24.752;2023-12-04T00:35:15;99199.19;;;4.80;82.23
70343;BME280;57767;42.068;24.752;2023-12-04T00:36:18;99229.13;;;5.18;80.84
70343;BME280;57767;42.068;24.752;2023-12-04T00:37:21;99244.84;;;5.26;81.99
70343;BME280;57767;42.068;24.752;2023-12-04T00:38:23;99299.81;;;5.50;81.13
70343;BME280;57767;42.068;24.752;2023-12-04T00:39:25;99186.75;;;4.82;81.50
70343;BME280;57767;42.068;24.752;2023-12-04T00:40:27;98955.00;;;3.51;81.96
70343;BME280;57767;42.068;24.752;2023-12-04T00:41:29;98946.50;;;3.49;80.68
70343;BME280;57767;42.068;24.752;2023-12-04T00:42:31;98961.41;;;3.65;80.86
70343;BME280;57767;42.068;24.752;2023-12-04T00:43:33;99057.16;;;4.30;80.63
70343;BME280;57767;42.068;24.752;2023-12-04T00:44:35;99158.47;;;4.77;80.93
70343;BME280;57767;42.068;24.752;2023-12-04T00:45:37;99158.00;;;4.90;80.75
70343;BME280;57767;42.068;24.752;2023-12-04T00:46:38;99161.09;;;4.85;79.98
70343;BME280;57767;42.068;24.752;2023-12-04T00:47:40;99164.53;;;4.86;80.43
70343;BME280;57767;42.068;24.752;2023-12-04T00:48:42;99273.47;;;5.52;80.36
70343;BME280;57767;42.068;24.752;2023-12-04T00:49:44;99004.34;;;3.78;80.21
70343;BME280;57767;42.068;24.752;2023-12-04T00:50:46;99302.94;;;5.54;79.97
70343;BME280;57767;42.068;24.752;2023-12-04T00:51:48;99176.63;;;4.87;79.28
70343;BME280;57767;42.068;24.752;2023-12-04T00:52:50;99209.66;;;4.96;78.61
70343;BME280;57767;42.068;24.752;2023-12-04T00:53:52;99276.06;;;5.35;78.17
70343;BME280;57767;42.068;24.752;2023-12-04T00:54:54;99289.50;;;5.40;78.24
70343;BME280;57767;42.068;24.752;2023-12-04T00:55:56;99193.31;;;4.78;78.53
70343;BME280;57767;42.068;24.752;2023-12-04T00:56:57;99189.72;;;4.79;78.76
70343;BME280;57767;42.068;24.752;2023-12-04T00:57:59;99301.94;;;5.47;79.54
70343;BME280;57767;42.068;24.752;2023-12-04T00:59:01;99001.53;;;3.64;79.68
70343;BME280;57767;42.068;24.752;2023-12-04T01:00:05;99122.16;;;4.25;79.48
70343;BME280;57767;42.068;24.752;2023-12-04T01:01:08;99000.97;;;3.44;79.57
70343;BME280;57767;42.068;24.752;2023-12-04T01:02:10;99179.69;;;4.50;79.91
70343;BME280;57767;42.068;24.752;2023-12-04T01:03:12;99316.69;;;5.39;80.74
70343;BME280;57767;42.068;24.752;2023-12-04T01:04:14;99100.88;;;4.12;80.80
70343;BME280;57767;42.068;24.752;2023-12-04T01:05:15;99188.72;;;4.72;81.46
70343;BME280;57767;42.068;24.752;2023-12-04T01:06:21;99068.22;;;4.00;82.12
70343;BME280;57767;42.068;24.752;2023-12-04T01:07:24;99230.44;;;4.89;82.27
70343;BME280;57767;42.068;24.752;2023-12-04T01:08:25;99121.50;;;4.31;82.97
70343;BME280;57767;42.068;24.752;2023-12-04T01:09:28;99077.84;;;4.08;81.76
70343;BME280;57767;42.068;24.752;2023-12-04T01:10:30;99303.25;;;5.51;82.20
70343;BME280;57767;42.068;24.752;2023-12-04T01:11:31;99109.59;;;4.29;81.16
70343;BME280;57767;42.068;24.752;2023-12-04T01:12:33;99323.06;;;5.69;79.91
70343;BME280;57767;42.068;24.752;2023-12-04T01:13:35;99118.91;;;4.40;80.22
70343;BME280;57767;42.068;24.752;2023-12-04T01:14:37;99314.22;;;5.62;80.11
70343;BME280;57767;42.068;24.752;2023-12-04T01:15:40;99062.31;;;4.06;79.55
70343;BME280;57767;42.068;24.752;2023-12-04T01:16:41;99339.91;;;5.67;79.39
70343;BME280;57767;42.068;24.752;2023-12-04T01:17:43;99319.63;;;5.69;80.15
70343;BME280;57767;42.068;24.752;2023-12-04T01:18:45;99252.84;;;5.16;79.26
70343;BME280;57767;42.068;24.752;2023-12-04T01:19:47;99333.69;;;5.60;79.29
70343;BME280;57767;42.068;24.752;2023-12-04T01:20:49;99316.31;;;5.75;79.67
70343;BME280;57767;42.068;24.752;2023-12-04T01:21:51;99031.13;;;3.96;79.67
70343;BME280;57767;42.068;24.752;2023-12-04T01:22:53;99101.91;;;4.52;79.81
70343;BME280;57767;42.068;24.752;2023-12-04T01:23:54;99242.06;;;5.19;78.71
70343;BME280;57767;42.068;24.752;2023-12-04T01:24:56;99065.16;;;4.29;78.53
70343;BME280;57767;42.068;24.752;2023-12-04T01:25:58;99209.84;;;5.19;78.50
70343;BME280;57767;42.068;24.752;2023-12-04T01:27:00;99324.66;;;5.87;78.58
70343;BME280;57767;42.068;24.752;2023-12-04T01:28:02;99073.97;;;4.36;78.52
70343;BME280;57767;42.068;24.752;2023-12-04T01:29:03;99092.25;;;4.44;78.21
70343;BME280;57767;42.068;24.752;2023-12-04T01:30:06;99229.13;;;5.26;78.35
70343;BME280;57767;42.068;24.752;2023-12-04T01:31:10;99306.66;;;5.84;78.30
70343;BME280;57767;42.068;24.752;2023-12-04T01:32:12;99222.56;;;5.38;77.55
70343;BME280;57767;42.068;24.752;2023-12-04T01:33:13;99037.03;;;4.15;77.61
70343;BME280;57767;42.068;24.752;2023-12-04T01:34:15;99309.75;;;5.87;76.47
70343;BME280;57767;42.068;24.752;2023-12-04T01:35:17;99320.09;;;5.97;75.46
70343;BME280;57767;42.068;24.752;2023-12-04T01:36:19;98934.09;;;3.43;74.39
70343;BME280;57767;42.068;24.752;2023-12-04T01:37:22;99327.44;;;5.85;74.91
70343;BME280;57767;42.068;24.752;2023-12-04T01:38:24;99106.16;;;4.37;75.32
70343;BME280;57767;42.068;24.752;2023-12-04T01:39:26;98820.63;;;2.30;74.17
70343;BME280;57767;42.068;24.752;2023-12-04T01:40:28;99091.44;;;4.27;74.03
70343;BME280;57767;42.068;24.752;2023-12-04T01:41:30;99048.44;;;3.97;73.98
70343;BME280;57767;42.068;24.752;2023-12-04T01:42:31;99199.53;;;4.93;73.18
70343;BME280;57767;42.068;24.752;2023-12-04T01:43:33;99102.06;;;4.26;74.16
70343;BME280;57767;42.068;24.752;2023-12-04T01:44:36;99197.69;;;4.69;74.59
70343;BME280;57767;42.068;24.752;2023-12-04T01:45:38;99283.78;;;5.37;74.85
70343;BME280;57767;42.068;24.752;2023-12-04T01:46:40;99228.78;;;4.96;74.62
70343;BME280;57767;42.068;24.752;2023-12-04T01:47:42;99313.22;;;5.47;73.94
70343;BME280;57767;42.068;24.752;2023-12-04T01:48:46;98922.41;;;2.97;74.41
70343;BME280;57767;42.068;24.752;2023-12-04T01:49:48;99127.47;;;4.00;74.37
70343;BME280;57767;42.068;24.752;2023-12-04T01:50:51;99303.56;;;5.23;74.46
70343;BME280;57767;42.068;24.752;2023-12-04T01:51:53;99327.31;;;5.30;73.95
70343;BME280;57767;42.068;24.752;2023-12-04T01:52:55;99320.44;;;5.29;73.94
70343;BME280;57767;42.068;24.752;2023-12-04T01:53:59;99211.91;;;4.58;74.41
70343;BME280;57767;42.068;24.752;2023-12-04T01:55:01;99321.91;;;5.23;74.23
70343;BME280;57767;42.068;24.752;2023-12-04T01:56:04;99081.38;;;3.74;74.11
70343;BME280;57767;42.068;24.752;2023-12-04T01:57:06;99235.78;;;4.72;74.60
70343;BME280;57767;42.068;24.752;2023-12-04T01:58:09;98920.81;;;2.70;72.32
70343;BME280;57767;42.068;24.752;2023-12-04T01:59:12;99186.38;;;4.28;73.18
70343;BME280;57767;42.068;24.752;2023-12-04T02:00:14;99342.19;;;5.21;73.47
70343;BME280;57767;42.068;24.752;2023-12-04T02:01:16;98997.59;;;3.09;72.97
70343;BME280;57767;42.068;24.752;2023-12-04T02:02:19;99267.22;;;4.80;72.98
70343;BME280;57767;42.068;24.752;2023-12-04T02:03:21;99291.94;;;4.93;73.68
70343;BME280;57767;42.068;24.752;2023-12-04T02:04:23;99303.38;;;5.09;73.51
70343;BME280;57767;42.068;24.752;2023-12-04T02:05:26;99275.72;;;4.90;73.68
70343;BME280;57767;42.068;24.752;2023-12-04T02:06:29;99279.84;;;4.92;73.92
70343;BME280;57767;42.068;24.752;2023-12-04T02:07:30;98999.09;;;3.20;73.86
70343;BME280;57767;42.068;24.752;2023-12-04T02:08:33;99306.00;;;5.09;73.48
70343;BME280;57767;42.068;24.752;2023-12-04T02:09:35;99226.63;;;4.51;74.12
70343;BME280;57767;42.068;24.752;2023-12-04T02:10:37;99211.06;;;4.42;74.50
70343;BME280;57767;42.068;24.752;2023-12-04T02:11:40;99337.28;;;5.18;73.45
70343;BME280;57767;42.068;24.752;2023-12-04T02:12:42;99070.84;;;3.58;73.20
70343;BME280;57767;42.068;24.752;2023-12-04T02:13:43;99330.56;;;5.16;73.79
70343;BME280;57767;42.068;24.752;2023-12-04T02:14:45;99322.06;;;5.14;73.41
70343;BME280;57767;42.068;24.752;2023-12-04T02:15:49;99316.66;;;5.15;74.39
70343;BME280;57767;42.068;24.752;2023-12-04T02:16:54;99216.47;;;4.48;74.49
70343;BME280;57767;42.068;24.752;2023-12-04T02:17:57;99315.03;;;5.06;74.58
70343;BME280;57767;42.068;24.752;2023-12-04T02:18:59;99129.91;;;3.93;73.91
70343;BME280;57767;42.068;24.752;2023-12-04T02:20:01;99262.44;;;4.67;72.92
70343;BME280;57767;42.068;24.752;2023-12-04T02:21:05;99355.78;;;5.17;73.78
70343;BME280;57767;42.068;24.752;2023-12-04T02:22:07;99093.38;;;3.51;72.76
70343;BME280;57767;42.068;24.752;2023-12-04T02:23:09;99348.03;;;5.07;73.11
70343;BME280;57767;42.068;24.752;2023-12-04T02:24:10;99350.50;;;5.09;73.44
70343;BME280;57767;42.068;24.752;2023-12-04T02:25:12;99164.28;;;3.72;73.93
70343;BME280;57767;42.068;24.752;2023-12-04T02:27:17;99345.91;;;5.02;73.33
70343;BME280;57767;42.068;24.752;2023-12-04T02:28:20;99346.75;;;5.03;72.03
70343;BME280;57767;42.068;24.752;2023-12-04T02:29:31;99347.88;;;5.00;72.05
70343;BME280;57767;42.068;24.752;2023-12-04T02:30:35;98947.13;;;2.50;71.83
70343;BME280;57767;42.068;24.752;2023-12-04T02:31:40;99351.13;;;4.94;71.30
70343;BME280;57767;42.068;24.752;2023-12-04T02:32:45;99086.56;;;3.32;71.50
70343;BME280;57767;42.068;24.752;2023-12-04T02:33:48;99114.09;;;3.52;71.27
70343;BME280;57767;42.068;24.752;2023-12-04T02:34:54;99353.91;;;4.93;71.55
70343;BME280;57767;42.068;24.752;2023-12-04T02:35:57;99254.78;;;4.23;71.58
70343;BME280;57767;42.068;24.752;2023-12-04T02:37:01;99248.22;;;4.19;72.06
70343;BME280;57767;42.068;24.752;2023-12-04T02:38:05;99098.81;;;3.32;71.25
70343;BME280;57767;42.068;24.752;2023-12-04T02:39:07;99250.38;;;4.24;72.42
70343;BME280;57767;42.068;24.752;2023-12-04T02:40:10;98990.06;;;2.64;71.51
70343;BME280;57767;42.068;24.752;2023-12-04T02:41:12;99053.09;;;2.94;71.18
70343;BME280;57767;42.068;24.752;2023-12-04T02:42:14;99388.91;;;4.92;71.69
70343;BME280;57767;42.068;24.752;2023-12-04T02:43:18;99035.50;;;2.87;71.53
70343;BME280;57767;42.068;24.752;2023-12-04T02:44:20;99058.38;;;3.02;71.66
70343;BME280;57767;42.068;24.752;2023-12-04T02:45:22;99353.72;;;4.86;71.56
70343;BME280;57767;42.068;24.752;2023-12-04T02:46:23;99357.16;;;4.95;72.29
70343;BME280;57767;42.068;24.752;2023-12-04T02:47:25;99364.38;;;4.93;70.38
70343;BME280;57767;42.068;24.752;2023-12-04T02:48:27;99102.91;;;3.34;69.96
70343;BME280;57767;42.068;24.752;2023-12-04T02:49:29;99245.47;;;4.21;71.03
70343;BME280;57767;42.068;24.752;2023-12-04T02:50:31;99119.25;;;3.44;70.78
70343;BME280;57767;42.068;24.752;2023-12-04T02:51:33;99247.25;;;4.20;71.15
70343;BME280;57767;42.068;24.752;2023-12-04T02:52:35;99277.84;;;4.28;70.64
70343;BME280;57767;42.068;24.752;2023-12-04T02:53:37;99263.38;;;4.08;70.72
70343;BME280;57767;42.068;24.752;2023-12-04T02:54:38;99093.69;;;3.14;70.17
70343;BME280;57767;42.068;24.752;2023-12-04T02:55:40;99124.88;;;3.23;70.35
70343;BME280;57767;42.068;24.752;2023-12-04T02:56:42;99228.41;;;4.01;70.54
70343;BME280;57767;42.068;24.752;2023-12-04T02:57:44;99043.16;;;2.89;69.95
70343;BME280;57767;42.068;24.752;2023-12-04T02:58:45;99302.72;;;4.40;70.43
70343;BME280;57767;42.068;24.752;2023-12-04T02:59:48;99261.63;;;4.16;70.17
70343;BME280;57767;42.068;24.752;2023-12-04T03:00:50;99315.00;;;4.48;69.25
70343;BME280;57767;42.068;24.752;2023-12-04T03:01:52;99310.56;;;4.40;68.74
70343;BME280;57767;42.068;24.752;2023-12-04T03:02:54;99025.34;;;2.59;69.14
70343;BME280;57767;42.068;24.752;2023-12-04T03:03:55;99120.88;;;3.11;69.41
70343;BME280;57767;42.068;24.752;2023-12-04T03:04:57;99177.88;;;3.50;69.12
70343;BME280;57767;42.068;24.752;2023-12-04T03:05:59;99042.63;;;2.60;67.80
70343;BME280;57767;42.068;24.752;2023-12-04T03:07:01;99284.63;;;4.13;67.97
70343;BME280;57767;42.068;24.752;2023-12-04T03:08:03;98968.94;;;2.06;67.60
70343;BME280;57767;42.068;24.752;2023-12-04T03:09:05;99005.59;;;2.30;68.47
70343;BME280;57767;42.068;24.752;2023-12-04T03:10:07;99401.09;;;4.75;68.63
70343;BME280;57767;42.068;24.752;2023-12-04T03:11:09;99185.56;;;3.51;67.66
70343;BME280;57767;42.068;24.752;2023-12-04T03:12:11;99371.94;;;4.62;67.19
70343;BME280;57767;42.068;24.752;2023-12-04T03:13:13;99386.38;;;4.74;67.69
70343;BME280;57767;42.068;24.752;2023-12-04T03:14:15;99195.28;;;3.41;66.97
70343;BME280;57767;42.068;24.752;2023-12-04T03:15:16;98951.19;;;1.84;66.90
70343;BME280;57767;42.068;24.752;2023-12-04T03:16:18;99146.81;;;3.13;68.59
70343;BME280;57767;42.068;24.752;2023-12-04T03:17:20;99304.19;;;4.09;68.23
70343;BME280;57767;42.068;24.752;2023-12-04T03:18:22;99358.59;;;4.39;67.83
70343;BME280;57767;42.068;24.752;2023-12-04T03:19:26;99413.81;;;4.70;67.97
70343;BME280;57767;42.068;24.752;2023-12-04T03:20:28;99364.56;;;4.23;67.26
70343;BME280;57767;42.068;24.752;2023-12-04T03:21:30;99408.59;;;4.70;67.15
70343;BME280;57767;42.068;24.752;2023-12-04T03:22:32;99417.59;;;4.67;66.99
70343;BME280;57767;42.068;24.752;2023-12-04T03:23:33;99419.25;;;4.68;67.18
70343;BME280;57767;42.068;24.752;2023-12-04T03:24:35;99000.50;;;2.21;66.93
70343;BME280;57767;42.068;24.752;2023-12-04T03:25:37;99099.63;;;2.80;66.44
70343;BME280;57767;42.068;24.752;2023-12-04T03:26:39;99098.19;;;2.78;67.39
70343;BME280;57767;42.068;24.752;2023-12-04T03:27:41;99030.13;;;2.20;67.48
70343;BME280;57767;42.068;24.752;2023-12-04T03:28:43;99415.47;;;4.71;68.06
70343;BME280;57767;42.068;24.752;2023-12-04T03:29:45;99175.00;;;3.09;67.78
70343;BME280;57767;42.068;24.752;2023-12-04T03:30:47;99113.59;;;2.53;66.63
70343;BME280;57767;42.068;24.752;2023-12-04T03:31:48;99195.53;;;3.30;65.96
70343;BME280;57767;42.068;24.752;2023-12-04T03:32:50;99419.25;;;4.68;65.92
70343;BME280;57767;42.068;24.752;2023-12-04T03:33:52;99394.47;;;4.55;65.72
70343;BME280;57767;42.068;24.752;2023-12-04T03:34:54;99423.47;;;4.69;65.96
70343;BME280;57767;42.068;24.752;2023-12-04T03:35:56;99206.13;;;3.29;66.45
70343;BME280;57767;42.068;24.752;2023-12-04T03:36:57;99421.50;;;4.72;65.40
70343;BME280;57767;42.068;24.752;2023-12-04T03:37:59;99328.91;;;4.14;64.78
70343;BME280;57767;42.068;24.752;2023-12-04T03:39:01;99302.78;;;3.88;64.24
70343;BME280;57767;42.068;24.752;2023-12-04T03:40:03;99315.28;;;4.03;64.66
70343;BME280;57767;42.068;24.752;2023-12-04T03:41:13;99187.47;;;2.98;64.52
70343;BME280;57767;42.068;24.752;2023-12-04T03:42:15;99103.47;;;2.68;65.04
70343;BME280;57767;42.068;24.752;2023-12-04T03:43:17;99419.53;;;4.65;65.00
70343;BME280;57767;42.068;24.752;2023-12-04T03:44:19;99184.31;;;3.12;64.52
70343;BME280;57767;42.068;24.752;2023-12-04T03:45:21;99318.50;;;3.96;65.37
70343;BME280;57767;42.068;24.752;2023-12-04T03:46:23;99425.91;;;4.63;66.45
70343;BME280;57767;42.068;24.752;2023-12-04T03:47:24;99408.84;;;4.51;66.44
70343;BME280;57767;42.068;24.752;2023-12-04T03:48:26;99098.16;;;2.34;66.48
70343;BME280;57767;42.068;24.752;2023-12-04T03:49:28;99320.00;;;3.99;67.62
70343;BME280;57767;42.068;24.752;2023-12-04T03:50:30;99401.09;;;4.41;66.98
70343;BME280;57767;42.068;24.752;2023-12-04T03:51:32;99371.88;;;4.20;66.58
70343;BME280;57767;42.068;24.752;2023-12-04T03:52:34;99225.81;;;3.23;66.04
70343;BME280;57767;42.068;24.752;2023-12-04T03:53:36;99421.75;;;4.52;66.69
70343;BME280;57767;42.068;24.752;2023-12-04T03:54:37;99006.75;;;1.92;66.03
70343;BME280;57767;42.068;24.752;2023-12-04T03:55:39;99281.69;;;3.56;66.02
70343;BME280;57767;42.068;24.752;2023-12-04T03:56:41;99343.06;;;4.04;66.04
70343;BME280;57767;42.068;24.752;2023-12-04T03:57:42;99121.50;;;2.44;65.64
70343;BME280;57767;42.068;24.752;2023-12-04T03:58:45;99170.84;;;2.99;65.47
70343;BME280;57767;42.068;24.752;2023-12-04T03:59:46;99426.03;;;4.53;65.42
70343;BME280;57767;42.068;24.752;2023-12-04T04:00:48;99076.91;;;2.29;65.44
70343;BME280;57767;42.068;24.752;2023-12-04T04:01:50;99081.53;;;2.35;65.62
70343;BME280;57767;42.068;24.752;2023-12-04T04:02:52;99372.16;;;4.09;65.48
70343;BME280;57767;42.068;24.752;2023-12-04T04:03:54;99130.16;;;2.62;66.17
70343;BME280;57767;42.068;24.752;2023-12-04T04:04:55;99425.47;;;4.42;66.79
70343;BME280;57767;42.068;24.752;2023-12-04T04:05:57;99421.53;;;4.46;67.05
70343;BME280;57767;42.068;24.752;2023-12-04T04:06:59;99424.69;;;4.49;66.86
70343;BME280;57767;42.068;24.752;2023-12-04T04:08:01;99336.22;;;3.85;66.45
70343;BME280;57767;42.068;24.752;2023-12-04T04:09:03;98763.53;;;0.37;65.10
70343;BME280;57767;42.068;24.752;2023-12-04T04:10:05;99422.69;;;4.43;66.35
70343;BME280;57767;42.068;24.752;2023-12-04T04:11:07;99165.97;;;2.78;65.44
70343;BME280;57767;42.068;24.752;2023-12-04T04:12:09;99321.63;;;3.74;66.63
70343;BME280;57767;42.068;24.752;2023-12-04T04:13:10;99467.06;;;4.35;65.86
70343;BME280;57767;42.068;24.752;2023-12-04T04:14:12;99233.13;;;3.19;65.85
70343;BME280;57767;42.068;24.752;2023-12-04T04:15:14;99446.00;;;4.37;66.37
70343;BME280;57767;42.068;24.752;2023-12-04T04:16:16;99382.59;;;4.09;67.70
70343;BME280;57767;42.068;24.752;2023-12-04T04:17:17;99323.38;;;3.66;65.84
70343;BME280;57767;42.068;24.752;2023-12-04T04:18:19;99238.00;;;2.97;65.14
70343;BME280;57767;42.068;24.752;2023-12-04T04:19:21;99438.19;;;4.19;65.70
70343;BME280;57767;42.068;24.752;2023-12-04T04:20:23;99404.72;;;3.96;65.02
70343;BME280;57767;42.068;24.752;2023-12-04T04:21:25;99192.34;;;2.75;64.14
70343;BME280;57767;42.068;24.752;2023-12-04T04:22:26;99101.72;;;1.98;62.83
70343;BME280;57767;42.068;24.752;2023-12-04T04:23:28;99327.56;;;3.58;63.25
70343;BME280;57767;42.068;24.752;2023-12-04T04:24:30;99195.91;;;2.74;62.69
70343;BME280;57767;42.068;24.752;2023-12-04T04:25:32;99163.13;;;2.53;62.65
70343;BME280;57767;42.068;24.752;2023-12-04T04:26:33;99474.25;;;4.33;63.51
70343;BME280;57767;42.068;24.752;2023-12-04T04:27:36;99100.59;;;2.18;63.23
70343;BME280;57767;42.068;24.752;2023-12-04T04:28:37;99340.47;;;3.60;63.60
70343;BME280;57767;42.068;24.752;2023-12-04T04:29:39;99176.47;;;2.68;62.98
70343;BME280;57767;42.068;24.752;2023-12-04T04:30:41;99428.25;;;4.22;64.28
70343;BME280;57767;42.068;24.752;2023-12-04T04:31:43;99209.63;;;2.76;63.15
70343;BME280;57767;42.068;24.752;2023-12-04T04:32:44;99403.06;;;4.13;63.13
70343;BME280;57767;42.068;24.752;2023-12-04T04:33:46;99263.84;;;3.26;63.60
70343;BME280;57767;42.068;24.752;2023-12-04T04:34:48;99177.81;;;2.72;64.27
70343;BME280;57767;42.068;24.752;2023-12-04T04:35:50;99125.25;;;2.24;63.85
70343;BME280;57767;42.068;24.752;2023-12-04T04:36:51;99210.38;;;2.86;64.23
70343;BME280;57767;42.068;24.752;2023-12-04T04:37:53;99268.91;;;3.09;64.46
70343;BME280;57767;42.068;24.752;2023-12-04T04:38:55;99430.44;;;4.27;64.63
70343;BME280;57767;42.068;24.752;2023-12-04T04:39:57;99228.31;;;2.89;64.60
70343;BME280;57767;42.068;24.752;2023-12-04T04:40:58;99294.53;;;3.32;64.72
70343;BME280;57767;42.068;24.752;2023-12-04T04:42:00;99450.25;;;4.12;64.90
70343;BME280;57767;42.068;24.752;2023-12-04T04:43:02;99172.81;;;2.43;64.02
70343;BME280;57767;42.068;24.752;2023-12-04T04:44:04;99322.53;;;3.39;64.83
70343;BME280;57767;42.068;24.752;2023-12-04T04:45:06;99146.97;;;2.32;64.93
70343;BME280;57767;42.068;24.752;2023-12-04T04:46:08;99438.38;;;4.17;64.92
70343;BME280;57767;42.068;24.752;2023-12-04T04:47:10;99316.97;;;3.42;64.65
70343;BME280;57767;42.068;24.752;2023-12-04T04:48:11;99461.09;;;4.17;64.90
70343;BME280;57767;42.068;24.752;2023-12-04T04:49:13;99478.41;;;4.18;65.04
70343;BME280;57767;42.068;24.752;2023-12-04T04:50:15;99319.25;;;3.37;65.35
70343;BME280;57767;42.068;24.752;2023-12-04T04:51:17;99447.47;;;4.13;65.01
70343;BME280;57767;42.068;24.752;2023-12-04T04:52:18;99328.56;;;3.40;64.85
70343;BME280;57767;42.068;24.752;2023-12-04T04:53:20;99311.50;;;3.28;64.68
70343;BME280;57767;42.068;24.752;2023-12-04T04:54:22;99332.81;;;3.41;64.38
70343;BME280;57767;42.068;24.752;2023-12-04T04:55:24;99450.41;;;4.10;64.49
70343;BME280;57767;42.068;24.752;2023-12-04T04:56:45;99221.38;;;2.44;65.13
70343;BME280;57767;42.068;24.752;2023-12-04T04:57:47;99456.38;;;4.03;64.75
70343;BME280;57767;42.068;24.752;2023-12-04T04:58:49;99209.75;;;2.39;63.68
70343;BME280;57767;42.068;24.752;2023-12-04T04:59:53;99479.38;;;3.99;63.57
70343;BME280;57767;42.068;24.752;2023-12-04T05:00:55;99356.50;;;3.30;63.97
70343;BME280;57767;42.068;24.752;2023-12-04T05:01:57;99209.75;;;2.39;63.50
70343;BME280;57767;42.068;24.752;2023-12-04T05:02:59;99472.59;;;3.88;63.00
70343;BME280;57767;42.068;24.752;2023-12-04T05:04:01;99109.53;;;1.70;63.26
70343;BME280;57767;42.068;24.752;2023-12-04T05:05:03;99317.34;;;2.76;62.76
70343;BME280;57767;42.068;24.752;2023-12-04T05:06:06;99207.03;;;2.13;63.17
70343;BME280;57767;42.068;24.752;2023-12-04T05:07:08;99224.19;;;2.06;63.70
70343;BME280;57767;42.068;24.752;2023-12-04T05:08:10;99266.94;;;2.40;62.45
70343;BME280;57767;42.068;24.752;2023-12-04T05:09:11;99203.13;;;1.99;61.25
70343;BME280;57767;42.068;24.752;2023-12-04T05:10:13;99415.97;;;3.36;61.48
70343;BME280;57767;42.068;24.752;2023-12-04T05:11:15;99205.38;;;2.12;61.91
70343;BME280;57767;42.068;24.752;2023-12-04T05:12:17;99177.22;;;1.70;61.79
70343;BME280;57767;42.068;24.752;2023-12-04T05:13:18;99422.00;;;3.36;61.91
70343;BME280;57767;42.068;24.752;2023-12-04T05:14:20;99496.00;;;3.80;61.73
70343;BME280;57767;42.068;24.752;2023-12-04T05:15:22;99393.41;;;3.17;61.31
70343;BME280;57767;42.068;24.752;2023-12-04T05:16:24;99473.88;;;3.67;61.24
70343;BME280;57767;42.068;24.752;2023-12-04T05:17:26;99106.19;;;1.23;61.60
70343;BME280;57767;42.068;24.752;2023-12-04T05:18:28;99187.44;;;1.82;61.87
70343;BME280;57767;42.068;24.752;2023-12-04T05:19:31;99391.69;;;3.08;62.07
70343;BME280;57767;42.068;24.752;2023-12-04T05:20:33;99381.03;;;3.01;61.40
70343;BME280;57767;42.068;24.752;2023-12-04T05:21:35;99385.16;;;3.04;61.70
70343;BME280;57767;42.068;24.752;2023-12-04T05:22:37;99390.53;;;2.93;62.35
70343;BME280;57767;42.068;24.752;2023-12-04T05:23:39;99380.09;;;2.93;61.96
70343;BME280;57767;42.068;24.752;2023-12-04T05:24:41;99323.34;;;2.59;61.72
70343;BME280;57767;42.068;24.752;2023-12-04T05:25:43;99132.25;;;1.41;62.26
70343;BME280;57767;42.068;24.752;2023-12-04T05:26:50;99471.91;;;3.51;62.55
70343;BME280;57767;42.068;24.752;2023-12-04T05:27:52;99317.31;;;2.59;62.27
70343;BME280;57767;42.068;24.752;2023-12-04T05:28:54;99493.56;;;3.61;62.80
70343;BME280;57767;42.068;24.752;2023-12-04T05:29:55;99242.38;;;1.78;62.59
70343;BME280;57767;42.068;24.752;2023-12-04T05:30:57;99454.72;;;3.31;63.20